Hyundai Republic — A8IL3 — position and weather

sailwx.info

Track history (hours):
 
Tides and Currents Weather Stations Pressure Air Temp Water Temp Dewpoint Dewpoint Depression Visibility Wind Speed Wind Dir Waves Ship Positions

Hyundai Republic

Last reported at 2015-May-21 06:06 UTC. Time now 2015-May-22 23:46 UTC.
Position N 31°22' E 121°42'.

Length 305 m.

Type: Ship (hazmat cat A). MMSI: 636090994.

Date/timePositionNaut miles runAvg speedWind from/ knotsBaromVisibWave heightAir tempDewpointWater temp
2015-May-21 06:06N 31°22' E 121°42'0 0.0
2015-May-21 05:33N 31°22' E 121°42'0 0.2
2015-May-21 04:33N 31°22' E 121°42'6 6.3
2015-May-21 03:34N 31°18' E 121°47'1515.0
2015-May-21 02:34N 31°14' E 122°04'1414.5
2015-May-21 01:33N 31°06' E 122°18'1010.0
2015-May-21 00:33N 31°07' E 122°30'7 6.7
2015-May-20 23:31N 31°10' E 122°38'0 0.0
2015-May-20 15:07N 31°10' E 122°37'0 0.0
2015-May-20 14:07N 31°10' E 122°37'0 0.1
2015-May-20 13:13N 31°10' E 122°37'0 0.1
2015-May-20 12:07N 31°10' E 122°38'0 0.0
2015-May-20 09:31N 31°10' E 122°38'0 0.0
2015-May-20 08:25N 31°10' E 122°38'0 0.0
2015-May-20 07:31N 31°10' E 122°38'0 0.2
2015-May-20 06:31N 31°10' E 122°38'0 0.1
2015-May-20 05:28N 31°10' E 122°38'0 0.1
2015-May-20 04:31N 31°10' E 122°38'0 0.1
2015-May-20 03:07N 31°10' E 122°37'0 0.1
2015-May-20 01:22N 31°10' E 122°37'0 0.1
2015-May-19 20:28N 31°10' E 122°38'0 0.1
2015-May-19 19:31N 31°10' E 122°38'0 0.1
2015-May-19 18:28N 31°10' E 122°38'0 0.0
2015-May-19 12:07N 31°10' E 122°37'0 0.1
2015-May-19 11:19N 31°10' E 122°37'0 0.1
2015-May-19 10:31N 31°10' E 122°38'0 0.1
2015-May-19 09:31N 31°10' E 122°38'0 0.0
2015-May-19 08:31N 31°10' E 122°38'0 0.1
2015-May-19 07:31N 31°10' E 122°38'0 0.1
2015-May-19 06:16N 31°10' E 122°38'0 0.0
2015-May-18 22:33N 31°10' E 122°38'0 0.1
2015-May-18 21:30N 31°10' E 122°38'0 0.1
2015-May-18 20:30N 31°10' E 122°38'0 0.0
2015-May-18 19:27N 31°10' E 122°38'0 0.1
2015-May-18 15:15N 31°10' E 122°37'0 0.1
2015-May-18 10:33N 31°10' E 122°38'0 0.1
2015-May-18 09:33N 31°10' E 122°38'0 0.1
2015-May-18 03:28N 31°10' E 122°38'4513.4
2015-May-18 00:05N 30°28' E 122°59'3513.3
2015-May-17 21:28N 29°54' E 122°56'2612.6
2015-May-17 19:25N 29°28' E 122°51'2212.1
2015-May-17 17:33N 29°08' E 122°39'29213.1
2015-May-16 19:18N 24°59' E 119°47'3813.7
2015-May-16 16:30N 24°36' E 119°13'1913.3
2015-May-16 15:04N 24°24' E 118°57'713.4
2015-May-16 14:33N 24°20' E 118°51'2013.8
2015-May-16 13:07N 24°09' E 118°33'814.6
2015-May-16 12:33N 24°03' E 118°26'1514.7
2015-May-16 11:33N 23°53' E 118°15'1515.2
2015-May-16 10:33N 23°44' E 118°02'1515.1
2015-May-16 09:33N 23°35' E 117°48'4413.5
2015-May-16 06:16N 23°06' E 117°12'1313.3
2015-May-16 05:17N 22°59' E 116°60'1013.3
2015-May-16 04:33N 22°53' E 116°51'1413.9
2015-May-16 03:33N 22°46' E 116°38'11814.0
2015-May-15 19:09N 22°08' E 114°37'913.9
2015-May-15 18:31N 22°08' E 114°28'1514.1
2015-May-15 17:29N 22°07' E 114°12'1313.6
2015-May-15 16:31N 22°00' E 113°60'  
2015-May-12 18:33N 22°06' E 113°49'1212.2
2015-May-12 17:33N 22°18' E 113°48'1514.6
2015-May-12 16:32N 22°33' E 113°44'2 0.1
2015-May-12 01:31N 22°35' E 113°43'1414.6
2015-May-12 00:33N 22°21' E 113°47'1514.9
2015-May-11 23:33N 22°06' E 113°51'15 4.8
2015-May-11 20:28N 22°08' E 114°07'5 5.0
2015-May-11 19:33N 22°11' E 114°11'10 9.6
2015-May-11 18:33N 22°19' E 114°06'1 1.2
2015-May-11 17:31N 22°21' E 114°07'0 0.0
2015-May-11 16:31N 22°21' E 114°07'0 0.0
2015-May-11 15:31N 22°21' E 114°07'0 0.0
2015-May-11 14:28N 22°21' E 114°07'0 0.0
2015-May-11 13:16N 22°21' E 114°07'0 0.0
2015-May-11 12:31N 22°21' E 114°07'0 0.0
2015-May-11 11:31N 22°21' E 114°07'0 0.0
2015-May-11 10:31N 22°21' E 114°07'0 0.3
2015-May-11 09:34N 22°20' E 114°07'18 8.5
2015-May-11 07:29N 22°05' E 114°16'  
Track history (hours):
 
Tides and Currents Weather Stations Pressure Air Temp Water Temp Dewpoint Dewpoint Depression Visibility Wind Speed Wind Dir Waves Ship Positions

Hyundai Republic

Last reported at 2015-May-21 06:06 UTC. Time now 2015-May-22 23:46 UTC.
Position N 31°22' E 121°42'.

Length 305 m.

Type: Ship (hazmat cat A). MMSI: 636090994.

Date/timePositionNaut miles runAvg speedWind from/ knotsBaromVisibWave heightAir tempDewpointWater temp
2015-May-21 06:06N 31°22' E 121°42'0 0.0
2015-May-21 05:33N 31°22' E 121°42'0 0.2
2015-May-21 04:33N 31°22' E 121°42'6 6.3
2015-May-21 03:34N 31°18' E 121°47'1515.0
2015-May-21 02:34N 31°14' E 122°04'1414.5
2015-May-21 01:33N 31°06' E 122°18'1010.0
2015-May-21 00:33N 31°07' E 122°30'7 6.7
2015-May-20 23:31N 31°10' E 122°38'0 0.0
2015-May-20 15:07N 31°10' E 122°37'0 0.0
2015-May-20 14:07N 31°10' E 122°37'0 0.1
2015-May-20 13:13N 31°10' E 122°37'0 0.1
2015-May-20 12:07N 31°10' E 122°38'0 0.0
2015-May-20 09:31N 31°10' E 122°38'0 0.0
2015-May-20 08:25N 31°10' E 122°38'0 0.0
2015-May-20 07:31N 31°10' E 122°38'0 0.2
2015-May-20 06:31N 31°10' E 122°38'0 0.1
2015-May-20 05:28N 31°10' E 122°38'0 0.1
2015-May-20 04:31N 31°10' E 122°38'0 0.1
2015-May-20 03:07N 31°10' E 122°37'0 0.1
2015-May-20 01:22N 31°10' E 122°37'0 0.1
2015-May-19 20:28N 31°10' E 122°38'0 0.1
2015-May-19 19:31N 31°10' E 122°38'0 0.1
2015-May-19 18:28N 31°10' E 122°38'0 0.0
2015-May-19 12:07N 31°10' E 122°37'0 0.1
2015-May-19 11:19N 31°10' E 122°37'0 0.1
2015-May-19 10:31N 31°10' E 122°38'0 0.1
2015-May-19 09:31N 31°10' E 122°38'0 0.0
2015-May-19 08:31N 31°10' E 122°38'0 0.1
2015-May-19 07:31N 31°10' E 122°38'0 0.1
2015-May-19 06:16N 31°10' E 122°38'0 0.0
2015-May-18 22:33N 31°10' E 122°38'0 0.1
2015-May-18 21:30N 31°10' E 122°38'0 0.1
2015-May-18 20:30N 31°10' E 122°38'0 0.0
2015-May-18 19:27N 31°10' E 122°38'0 0.1
2015-May-18 15:15N 31°10' E 122°37'0 0.1
2015-May-18 10:33N 31°10' E 122°38'0 0.1
2015-May-18 09:33N 31°10' E 122°38'0 0.1
2015-May-18 03:28N 31°10' E 122°38'4513.4
2015-May-18 00:05N 30°28' E 122°59'3513.3
2015-May-17 21:28N 29°54' E 122°56'2612.6
2015-May-17 19:25N 29°28' E 122°51'2212.1
2015-May-17 17:33N 29°08' E 122°39'29213.1
2015-May-16 19:18N 24°59' E 119°47'3813.7
2015-May-16 16:30N 24°36' E 119°13'1913.3
2015-May-16 15:04N 24°24' E 118°57'713.4
2015-May-16 14:33N 24°20' E 118°51'2013.8
2015-May-16 13:07N 24°09' E 118°33'814.6
2015-May-16 12:33N 24°03' E 118°26'1514.7
2015-May-16 11:33N 23°53' E 118°15'1515.2
2015-May-16 10:33N 23°44' E 118°02'1515.1
2015-May-16 09:33N 23°35' E 117°48'4413.5
2015-May-16 06:16N 23°06' E 117°12'1313.3
2015-May-16 05:17N 22°59' E 116°60'1013.3
2015-May-16 04:33N 22°53' E 116°51'1413.9
2015-May-16 03:33N 22°46' E 116°38'11814.0
2015-May-15 19:09N 22°08' E 114°37'913.9
2015-May-15 18:31N 22°08' E 114°28'1514.1
2015-May-15 17:29N 22°07' E 114°12'1313.6
2015-May-15 16:31N 22°00' E 113°60'  
2015-May-12 18:33N 22°06' E 113°49'1212.2
2015-May-12 17:33N 22°18' E 113°48'1514.6
2015-May-12 16:32N 22°33' E 113°44'2 0.1
2015-May-12 01:31N 22°35' E 113°43'1414.6
2015-May-12 00:33N 22°21' E 113°47'1514.9
2015-May-11 23:33N 22°06' E 113°51'15 4.8
2015-May-11 20:28N 22°08' E 114°07'5 5.0
2015-May-11 19:33N 22°11' E 114°11'10 9.6
2015-May-11 18:33N 22°19' E 114°06'1 1.2
2015-May-11 17:31N 22°21' E 114°07'0 0.0
2015-May-11 16:31N 22°21' E 114°07'0 0.0
2015-May-11 15:31N 22°21' E 114°07'0 0.0
2015-May-11 14:28N 22°21' E 114°07'0 0.0
2015-May-11 13:16N 22°21' E 114°07'0 0.0
2015-May-11 12:31N 22°21' E 114°07'0 0.0
2015-May-11 11:31N 22°21' E 114°07'0 0.0
2015-May-11 10:31N 22°21' E 114°07'0 0.3
2015-May-11 09:34N 22°20' E 114°07'18 8.5
2015-May-11 07:29N 22°05' E 114°16'  

Dump ship's entire track history